Time;durP1;ratioP1;P1;durP2;ratioP2;P2;SDS_P1;SDS_P2;PMS_P1;PMS_P2;Temp;Humidity;BMP_temperature;BMP_pressure;BME280_temperature;BME280_humidity;BME280_pressure;Samples;Min_cycle;Max_cycle;Signal;HPM_P1;HPM_P2
2023/12/06 00:02:10;;;;;;;7.82;3.72;;;4.50;99.90;;;;;;5037067;28;20435;-92
2023/12/06 00:04:36;;;;;;;4.88;3.78;;;4.50;99.90;;;;;;5046198;28;20032;-92
2023/12/06 00:07:01;;;;;;;4.40;2.75;;;4.50;99.90;;;;;;5038238;28;20407;-92
2023/12/06 00:09:27;;;;;;;4.63;4.22;;;4.50;99.90;;;;;;5032931;28;20080;-91
2023/12/06 00:11:53;;;;;;;3.78;2.65;;;4.50;99.90;;;;;;5037582;28;20079;-92
2023/12/06 00:14:18;;;;;;;4.72;4.05;;;4.50;99.90;;;;;;5039236;28;20025;-92
2023/12/06 00:16:44;;;;;;;4.40;3.97;;;4.50;99.90;;;;;;5038510;28;20139;-93
2023/12/06 00:19:12;;;;;;;3.97;3.58;;;4.50;99.90;;;;;;5035335;28;20022;-90
2023/12/06 00:21:38;;;;;;;3.92;2.95;;;4.50;99.90;;;;;;5036679;28;20481;-92
2023/12/06 00:24:04;;;;;;;3.75;2.40;;;4.50;99.90;;;;;;5042240;28;20037;-91
2023/12/06 00:26:30;;;;;;;5.70;4.28;;;4.50;99.90;;;;;;5037512;28;20446;-90
2023/12/06 00:28:56;;;;;;;4.72;3.45;;;4.50;99.90;;;;;;5037907;28;20022;-91
2023/12/06 00:31:24;;;;;;;5.70;2.83;;;4.50;99.90;;;;;;5044517;28;20025;-92
2023/12/06 00:33:50;;;;;;;4.03;3.40;;;4.40;99.90;;;;;;5041269;28;20025;-91
2023/12/06 00:36:15;;;;;;;4.30;3.95;;;4.40;99.90;;;;;;5036775;28;20097;-92
2023/12/06 00:38:41;;;;;;;5.38;2.50;;;4.50;99.90;;;;;;5045295;28;20025;-92
2023/12/06 00:41:07;;;;;;;4.13;2.72;;;4.40;99.90;;;;;;5029806;28;20037;-91
2023/12/06 00:43:32;;;;;;;3.92;2.83;;;4.50;99.90;;;;;;5045957;28;20061;-91
2023/12/06 00:46:01;;;;;;;4.28;3.03;;;4.40;99.90;;;;;;5036821;28;20041;-92
2023/12/06 00:48:26;;;;;;;3.85;3.35;;;4.50;99.90;;;;;;5036381;28;20061;-90
2023/12/06 00:50:52;;;;;;;3.83;3.05;;;4.50;99.90;;;;;;5036178;28;20044;-91
2023/12/06 00:53:20;;;;;;;3.88;3.55;;;4.50;99.90;;;;;;5044134;28;20538;-89
2023/12/06 00:55:46;;;;;;;4.80;3.13;;;4.40;99.90;;;;;;5036340;28;20167;-92
2023/12/06 00:58:12;;;;;;;4.35;2.60;;;4.50;99.90;;;;;;5053844;28;20064;-92
2023/12/06 01:00:38;;;;;;;3.92;3.20;;;4.50;99.90;;;;;;5032669;28;20098;-91
2023/12/06 01:03:04;;;;;;;4.63;3.10;;;4.50;99.90;;;;;;5049471;28;20472;-94
2023/12/06 01:05:29;;;;;;;4.72;3.20;;;4.50;99.90;;;;;;5040485;28;20075;-92
2023/12/06 01:07:55;;;;;;;4.13;3.72;;;4.50;99.90;;;;;;5041312;28;20416;-90
2023/12/06 01:10:22;;;;;;;5.50;2.42;;;4.50;99.90;;;;;;5040348;28;20030;-91
2023/12/06 01:12:47;;;;;;;4.55;3.05;;;4.50;99.90;;;;;;5039959;28;20198;-91
2023/12/06 01:15:13;;;;;;;3.45;2.42;;;4.60;99.90;;;;;;5048428;28;20372;-91
2023/12/06 01:17:38;;;;;;;5.07;2.70;;;4.60;99.90;;;;;;5048982;28;20123;-91
2023/12/06 01:20:06;;;;;;;4.25;3.17;;;4.50;99.90;;;;;;5033609;28;20068;-93
2023/12/06 01:22:37;;;;;;;3.95;2.42;;;4.50;99.90;;;;;;5041322;28;20022;-90
2023/12/06 01:25:03;;;;;;;5.22;3.22;;;4.60;99.90;;;;;;5040609;28;20430;-90
2023/12/06 01:27:33;;;;;;;5.32;3.38;;;4.50;99.90;;;;;;5033336;28;20041;-91
2023/12/06 01:29:59;;;;;;;3.97;2.95;;;4.60;99.90;;;;;;5048762;28;20483;-91
2023/12/06 01:32:25;;;;;;;4.65;2.67;;;4.60;99.90;;;;;;5040321;28;20032;-91
2023/12/06 01:34:50;;;;;;;5.07;3.38;;;4.60;99.90;;;;;;5051918;28;20033;-92
2023/12/06 01:37:16;;;;;;;6.10;3.58;;;4.60;99.90;;;;;;5041123;28;20099;-91
2023/12/06 01:39:45;;;;;;;6.05;4.32;;;4.60;99.90;;;;;;5038099;28;20025;-92
2023/12/06 01:42:11;;;;;;;5.40;3.40;;;4.60;99.90;;;;;;5049014;28;20068;-92
2023/12/06 01:44:37;;;;;;;5.88;3.92;;;4.60;99.90;;;;;;5039894;28;20045;-94
2023/12/06 01:47:07;;;;;;;5.97;3.40;;;4.60;99.90;;;;;;5041201;28;20026;-91
2023/12/06 01:49:36;;;;;;;5.95;4.93;;;4.60;99.90;;;;;;5039105;28;20017;-93
2023/12/06 01:52:02;;;;;;;7.85;5.50;;;4.60;99.90;;;;;;5039061;28;20400;-92
2023/12/06 01:54:28;;;;;;;7.57;4.65;;;4.70;99.90;;;;;;5038873;28;20266;-92
2023/12/06 01:56:55;;;;;;;13.45;4.53;;;4.70;99.90;;;;;;5044378;28;20107;-92
2023/12/06 01:59:21;;;;;;;9.13;4.70;;;4.60;99.90;;;;;;5040141;28;20056;-92
2023/12/06 02:01:47;;;;;;;9.73;5.15;;;4.70;99.90;;;;;;5039100;28;20029;-92
2023/12/06 02:04:13;;;;;;;7.72;4.93;;;4.60;99.90;;;;;;5040016;28;20036;-91
2023/12/06 02:06:39;;;;;;;7.55;5.03;;;4.60;99.90;;;;;;5040040;28;20033;-92
2023/12/06 02:09:06;;;;;;;6.85;4.75;;;4.70;99.90;;;;;;5037787;28;20030;-92
2023/12/06 02:11:31;;;;;;;7.68;4.90;;;4.70;99.90;;;;;;5046786;28;20480;-92
2023/12/06 02:13:57;;;;;;;8.63;5.07;;;4.70;99.90;;;;;;5038853;28;20035;-91
2023/12/06 02:16:23;;;;;;;9.40;5.75;;;4.70;99.90;;;;;;5046168;28;20734;-91
2023/12/06 02:18:49;;;;;;;7.65;5.65;;;4.70;99.90;;;;;;5035650;28;20042;-90
2023/12/06 02:21:15;;;;;;;10.52;5.85;;;4.70;99.90;;;;;;5031754;28;20092;-92
2023/12/06 02:23:43;;;;;;;11.63;6.22;;;4.70;99.90;;;;;;5040254;28;20026;-91
2023/12/06 02:26:08;;;;;;;7.32;4.78;;;4.70;99.90;;;;;;5040482;28;20021;-94
2023/12/06 02:28:34;;;;;;;8.30;3.72;;;4.70;99.90;;;;;;5038799;28;20021;-91
2023/12/06 02:31:00;;;;;;;5.47;3.22;;;4.60;99.90;;;;;;5035180;28;20021;-91
2023/12/06 02:33:27;;;;;;;7.43;4.35;;;4.60;99.90;;;;;;5039922;28;20036;-91
2023/12/06 02:36:00;;;;;;;6.40;4.00;;;4.70;99.90;;;;;;5042492;28;20112;-93
2023/12/06 02:38:26;;;;;;;5.90;4.22;;;4.60;99.90;;;;;;5042837;28;20024;-91
2023/12/06 02:40:54;;;;;;;6.43;4.40;;;4.70;99.90;;;;;;5042562;28;20167;-90
2023/12/06 02:43:20;;;;;;;;;;;4.60;99.90;;;;;;5046304;28;20051;-91
2023/12/06 02:45:46;;;;;;;4.95;3.60;;;4.70;99.90;;;;;;5046188;28;19969;-91
2023/12/06 02:48:12;;;;;;;3.97;3.60;;;4.70;99.90;;;;;;5040350;28;20081;-90
2023/12/06 02:50:38;;;;;;;6.40;2.88;;;4.70;99.90;;;;;;5040188;28;20034;-92
2023/12/06 02:53:06;;;;;;;5.45;3.75;;;4.70;99.90;;;;;;5039537;28;20025;-94
2023/12/06 02:55:32;;;;;;;5.80;3.92;;;4.60;99.90;;;;;;5053976;28;20029;-90
2023/12/06 02:57:57;;;;;;;8.15;3.90;;;4.60;99.90;;;;;;5050020;28;20035;-92
2023/12/06 03:00:23;;;;;;;3.92;3.42;;;4.60;99.90;;;;;;5045365;28;20036;-92
2023/12/06 03:02:52;;;;;;;6.55;3.45;;;4.60;99.90;;;;;;5056318;28;20056;-91
2023/12/06 03:05:18;;;;;;;9.25;4.05;;;4.70;99.90;;;;;;5052879;28;20073;-93
2023/12/06 03:07:46;;;;;;;5.20;3.17;;;4.60;99.90;;;;;;5061767;28;20052;-92
2023/12/06 03:10:11;;;;;;;7.38;3.30;;;4.70;99.90;;;;;;5050778;28;20834;-90
2023/12/06 03:12:37;;;;;;;4.28;3.67;;;4.70;99.90;;;;;;5048784;28;20028;-93
2023/12/06 03:15:03;;;;;;;7.20;3.80;;;4.60;99.90;;;;;;5039937;28;20029;-91
2023/12/06 03:17:29;;;;;;;5.25;3.90;;;4.60;99.90;;;;;;5038237;28;20048;-91
2023/12/06 03:19:54;;;;;;;8.23;4.32;;;4.60;99.90;;;;;;5038279;28;20026;-93
2023/12/06 03:22:20;;;;;;;7.10;3.63;;;4.60;99.90;;;;;;5043263;28;20056;-91
2023/12/06 03:24:46;;;;;;;5.88;4.22;;;4.60;99.90;;;;;;5042783;28;20022;-92
2023/12/06 03:27:12;;;;;;;5.47;3.90;;;4.60;99.90;;;;;;5038799;28;20067;-93
2023/12/06 03:29:38;;;;;;;8.35;3.75;;;4.70;99.90;;;;;;5024117;28;20064;-91
2023/12/06 03:32:04;;;;;;;4.15;2.78;;;4.60;99.90;;;;;;5045135;28;20036;-92
2023/12/06 03:34:29;;;;;;;7.45;4.30;;;4.60;99.90;;;;;;5047519;28;20025;-92
2023/12/06 03:36:55;;;;;;;7.35;4.20;;;4.60;99.90;;;;;;5036907;28;20036;-92
2023/12/06 03:39:20;;;;;;;6.65;3.70;;;4.60;99.90;;;;;;5030844;28;20022;-92
2023/12/06 03:41:46;;;;;;;7.05;3.38;;;4.60;99.90;;;;;;5046344;28;20052;-92
2023/12/06 03:44:12;;;;;;;5.15;3.50;;;4.60;99.90;;;;;;5040646;28;20059;-92
2023/12/06 03:46:37;;;;;;;7.35;4.45;;;4.70;99.90;;;;;;5051210;28;20025;-92
2023/12/06 03:49:03;;;;;;;5.32;3.60;;;4.60;99.90;;;;;;5035729;28;20057;-94
2023/12/06 03:51:31;;;;;;;4.90;4.20;;;4.60;99.90;;;;;;5045303;28;20052;-92
2023/12/06 03:53:57;;;;;;;6.38;4.07;;;4.70;99.90;;;;;;5041588;28;20687;-93
2023/12/06 03:56:23;;;;;;;6.68;3.22;;;4.70;99.90;;;;;;5040303;28;20060;-91
2023/12/06 03:58:48;;;;;;;7.57;5.07;;;4.70;99.90;;;;;;5042725;28;20025;-92
2023/12/06 04:01:14;;;;;;;8.38;4.03;;;4.70;99.90;;;;;;5040085;28;20037;-91
2023/12/06 04:03:43;;;;;;;4.82;3.75;;;4.60;99.90;;;;;;5038526;28;20128;-93
2023/12/06 04:06:12;;;;;;;4.03;3.45;;;4.60;99.90;;;;;;5049630;28;20319;-91
2023/12/06 04:08:37;;;;;;;7.30;4.60;;;4.70;99.90;;;;;;5039087;28;20033;-92
2023/12/06 04:11:04;;;;;;;5.50;3.08;;;4.70;99.90;;;;;;5035830;28;20113;-91
2023/12/06 04:13:30;;;;;;;4.82;3.75;;;4.70;99.90;;;;;;5039806;28;20079;-92
2023/12/06 04:15:56;;;;;;;6.40;4.00;;;4.70;99.90;;;;;;5045386;28;20025;-92
2023/12/06 04:18:21;;;;;;;5.53;3.85;;;4.70;99.90;;;;;;5045155;28;20621;-92
2023/12/06 04:20:56;;;;;;;7.20;4.78;;;4.80;99.90;;;;;;5036240;28;20052;-92
2023/12/06 04:23:24;;;;;;;6.10;4.32;;;4.80;99.90;;;;;;5031673;28;20052;-93
2023/12/06 04:25:50;;;;;;;4.38;3.13;;;4.70;99.90;;;;;;5038889;28;20077;-93
2023/12/06 04:28:16;;;;;;;5.70;4.70;;;4.70;99.90;;;;;;5037416;28;20107;-92
2023/12/06 04:30:41;;;;;;;4.00;3.40;;;4.70;99.90;;;;;;5038045;28;20053;-93
2023/12/06 04:33:07;;;;;;;6.55;5.40;;;4.70;99.90;;;;;;5052327;28;20064;-92
2023/12/06 04:35:33;;;;;;;4.45;3.72;;;4.70;99.90;;;;;;5041373;28;20025;-92
2023/12/06 04:38:04;;;;;;;5.63;4.47;;;4.70;99.90;;;;;;5043233;28;20764;-93
2023/12/06 04:40:30;;;;;;;5.70;3.55;;;4.70;99.90;;;;;;5037457;28;20025;-93
2023/12/06 04:42:55;;;;;;;5.18;3.08;;;4.70;99.90;;;;;;5052575;28;20044;-93
2023/12/06 04:45:21;;;;;;;4.95;3.58;;;4.70;99.90;;;;;;5059965;28;20148;-92
2023/12/06 04:47:49;;;;;;;4.35;3.65;;;4.70;99.90;;;;;;5045533;28;20084;-92
2023/12/06 04:50:14;;;;;;;5.13;2.97;;;4.70;99.90;;;;;;5044149;28;20021;-92
2023/12/06 04:52:40;;;;;;;4.57;3.53;;;4.80;99.90;;;;;;5028510;28;20053;-93
2023/12/06 04:55:14;;;;;;;6.60;3.88;;;4.80;99.90;;;;;;5043138;28;20044;-94
2023/12/06 04:57:40;;;;;;;7.43;4.07;;;4.70;99.90;;;;;;5059389;28;20072;-92
2023/12/06 05:00:09;;;;;;;4.80;3.25;;;4.70;99.90;;;;;;5045979;28;20029;-93
2023/12/06 05:02:35;;;;;;;5.20;4.00;;;4.80;99.90;;;;;;5050677;28;20472;-93
2023/12/06 05:05:01;;;;;;;6.43;3.83;;;4.70;99.90;;;;;;5043594;28;20184;-94
2023/12/06 05:07:27;;;;;;;6.40;4.72;;;4.70;99.90;;;;;;5043520;28;20030;-93
2023/12/06 05:09:53;;;;;;;5.68;3.55;;;4.70;99.90;;;;;;5043582;28;20036;-92
2023/12/06 05:12:21;;;;;;;7.47;4.05;;;4.70;99.90;;;;;;5047561;28;20092;-93
2023/12/06 05:14:47;;;;;;;8.40;3.88;;;4.70;99.90;;;;;;5052916;28;20028;-92
2023/12/06 05:17:19;;;;;;;6.57;4.95;;;4.70;99.90;;;;;;5043056;28;20036;-93
2023/12/06 05:19:44;;;;;;;9.15;4.43;;;4.70;99.90;;;;;;5050020;28;20112;-92
2023/12/06 05:22:10;;;;;;;6.97;4.82;;;4.70;99.90;;;;;;5045899;28;20739;-93
2023/12/06 05:24:39;;;;;;;8.80;5.47;;;4.70;99.90;;;;;;5045191;28;20041;-93
2023/12/06 05:27:04;;;;;;;6.18;4.93;;;4.60;99.90;;;;;;5046006;28;20014;-92
2023/12/06 05:29:31;;;;;;;7.60;5.10;;;4.70;99.90;;;;;;5041410;28;20022;-93
2023/12/06 05:31:58;;;;;;;7.38;4.45;;;4.70;99.90;;;;;;5042536;28;20028;-92
2023/12/06 05:34:24;;;;;;;5.60;4.30;;;4.70;99.90;;;;;;5045434;28;20022;-92
2023/12/06 05:36:50;;;;;;;7.75;4.75;;;4.70;99.90;;;;;;5059463;28;20044;-92
2023/12/06 05:39:15;;;;;;;6.65;4.40;;;4.60;99.90;;;;;;5042283;28;20014;-93
2023/12/06 05:41:41;;;;;;;7.47;4.72;;;4.60;99.90;;;;;;5042120;28;20041;-91
2023/12/06 05:44:07;;;;;;;8.73;5.30;;;4.60;99.90;;;;;;5035959;28;20500;-93
2023/12/06 05:46:32;;;;;;;8.38;5.25;;;4.60;99.90;;;;;;5038416;28;20017;-92
2023/12/06 05:48:58;;;;;;;7.78;4.70;;;4.60;99.90;;;;;;5046965;28;20029;-92
2023/12/06 05:51:24;;;;;;;8.13;4.53;;;4.60;99.90;;;;;;5044082;28;20060;-92
2023/12/06 05:53:50;;;;;;;8.75;5.20;;;4.70;99.90;;;;;;5038931;28;20034;-93
2023/12/06 05:56:15;;;;;;;12.73;7.65;;;4.70;99.90;;;;;;5043574;28;20113;-92
2023/12/06 05:58:42;;;;;;;9.80;6.13;;;4.60;99.90;;;;;;5044922;28;20029;-92
2023/12/06 06:01:08;;;;;;;8.70;6.13;;;4.60;99.90;;;;;;5043750;28;20033;-92
2023/12/06 06:03:34;;;;;;;8.75;5.47;;;4.70;99.90;;;;;;5049818;28;20027;-90
2023/12/06 06:06:09;;;;;;;8.07;5.30;;;4.70;99.90;;;;;;5056622;28;20026;-94
2023/12/06 06:08:35;;;;;;;10.57;6.22;;;4.70;99.90;;;;;;5050857;28;20136;-92
2023/12/06 06:11:02;;;;;;;8.48;6.32;;;4.70;99.90;;;;;;5039163;28;20037;-92
2023/12/06 06:13:29;;;;;;;10.20;6.03;;;4.70;99.90;;;;;;5056174;28;20037;-92
2023/12/06 06:15:58;;;;;;;12.15;5.68;;;4.70;99.90;;;;;;5045181;28;20071;-92
2023/12/06 06:18:24;;;;;;;9.93;6.50;;;4.60;99.90;;;;;;5035712;28;20064;-90
2023/12/06 06:20:50;;;;;;;10.63;7.47;;;4.70;99.90;;;;;;5042153;28;20056;-93
2023/12/06 06:23:16;;;;;;;11.43;6.95;;;4.60;99.90;;;;;;5048315;28;20021;-91
2023/12/06 06:25:41;;;;;;;9.38;5.80;;;4.60;99.90;;;;;;5049338;28;20037;-92
2023/12/06 06:28:07;;;;;;;10.85;6.50;;;4.60;99.90;;;;;;5053728;28;20475;-92
2023/12/06 06:30:32;;;;;;;9.02;6.47;;;4.60;99.90;;;;;;5053668;28;20590;-91
2023/12/06 06:32:58;;;;;;;11.13;6.18;;;4.60;99.90;;;;;;5051915;28;20034;-93
2023/12/06 06:35:24;;;;;;;12.80;6.53;;;4.60;99.90;;;;;;5043643;28;20047;-90
2023/12/06 06:37:51;;;;;;;13.50;6.25;;;4.60;99.90;;;;;;5045274;28;20081;-95
2023/12/06 06:40:16;;;;;;;12.02;7.32;;;4.60;99.90;;;;;;5023749;28;20028;-92
2023/12/06 06:42:42;;;;;;;11.75;7.72;;;4.60;99.90;;;;;;5039569;28;20022;-93
2023/12/06 06:45:09;;;;;;;9.38;7.10;;;4.60;99.90;;;;;;5043601;28;20025;-92
2023/12/06 06:47:36;;;;;;;12.30;7.07;;;4.60;99.90;;;;;;5044111;28;20028;-92
2023/12/06 06:50:05;;;;;;;12.20;7.13;;;4.60;99.90;;;;;;5043909;28;20026;-92
2023/12/06 06:52:34;;;;;;;10.02;6.95;;;4.50;99.90;;;;;;5047887;28;20077;-94
2023/12/06 06:55:00;;;;;;;13.50;7.47;;;4.50;99.90;;;;;;5043976;28;20033;-92
2023/12/06 06:57:26;;;;;;;13.25;7.13;;;4.50;99.90;;;;;;5041006;28;20112;-92
2023/12/06 06:59:51;;;;;;;13.35;9.02;;;4.50;99.90;;;;;;5043083;28;20387;-92
2023/12/06 07:02:17;;;;;;;11.95;6.95;;;4.50;99.90;;;;;;5030714;28;20084;-92
2023/12/06 07:04:46;;;;;;;13.60;7.50;;;4.50;99.90;;;;;;5051824;28;20025;-92
2023/12/06 07:07:11;;;;;;;13.38;7.75;;;4.50;99.90;;;;;;5060061;28;20021;-92
2023/12/06 07:09:40;;;;;;;14.60;9.73;;;4.50;99.90;;;;;;5043738;28;20040;-92
2023/12/06 07:12:06;;;;;;;13.55;8.13;;;4.40;99.90;;;;;;5052533;28;20028;-92
2023/12/06 07:14:32;;;;;;;14.55;8.85;;;4.40;99.90;;;;;;5050609;28;20025;-93
2023/12/06 07:16:59;;;;;;;15.73;8.98;;;4.40;99.90;;;;;;5051583;28;20523;-92
2023/12/06 07:19:24;;;;;;;14.73;7.97;;;4.40;99.90;;;;;;5043701;28;20094;-92
2023/12/06 07:21:50;;;;;;;14.18;8.45;;;4.40;99.90;;;;;;5036745;28;20034;-91
2023/12/06 07:24:16;;;;;;;16.15;8.68;;;4.40;99.90;;;;;;5042190;28;20052;-92
2023/12/06 07:26:42;;;;;;;16.90;8.57;;;4.30;99.90;;;;;;5057641;28;20028;-91
2023/12/06 07:29:08;;;;;;;13.90;8.48;;;4.30;99.90;;;;;;5043580;28;20079;-91
2023/12/06 07:31:34;;;;;;;16.77;9.88;;;4.30;99.90;;;;;;5042395;28;20084;-93
2023/12/06 07:34:00;;;;;;;16.27;9.52;;;4.30;99.90;;;;;;5047800;28;20029;-91
2023/12/06 07:36:25;;;;;;;17.67;11.02;;;4.30;99.90;;;;;;5063418;28;20021;-93
2023/12/06 07:38:51;;;;;;;17.55;9.85;;;4.20;99.90;;;;;;5053051;28;20060;-93
2023/12/06 07:41:17;;;;;;;17.38;9.18;;;4.20;99.90;;;;;;5041892;28;20484;-92
2023/12/06 07:43:42;;;;;;;17.05;8.82;;;4.20;99.90;;;;;;5043719;28;20104;-93
2023/12/06 07:46:08;;;;;;;17.08;9.10;;;4.20;99.90;;;;;;5043243;28;20029;-91
2023/12/06 07:48:34;;;;;;;18.30;11.32;;;4.20;99.90;;;;;;5044865;28;20026;-90
2023/12/06 07:51:00;;;;;;;18.90;10.82;;;4.20;99.90;;;;;;5039254;28;20014;-92
2023/12/06 07:53:26;;;;;;;17.83;8.63;;;4.20;99.90;;;;;;5055454;28;20427;-90
2023/12/06 07:55:55;;;;;;;18.85;10.93;;;4.20;99.90;;;;;;5047008;28;20045;-92
2023/12/06 07:58:22;;;;;;;15.40;9.05;;;4.20;99.90;;;;;;5054641;28;20050;-96
2023/12/06 08:00:49;;;;;;;18.92;10.25;;;4.10;99.90;;;;;;5056249;28;20022;-96
2023/12/06 08:03:14;;;;;;;17.73;11.02;;;4.10;99.90;;;;;;5065105;28;20037;-91
2023/12/06 08:05:43;;;;;;;16.15;9.32;;;4.10;99.90;;;;;;5051145;28;20032;-92
2023/12/06 08:08:13;;;;;;;20.45;10.30;;;4.10;99.90;;;;;;5059958;28;20017;-91
2023/12/06 08:10:41;;;;;;;15.82;9.25;;;4.10;99.90;;;;;;5042718;28;20331;-92
2023/12/06 08:13:07;;;;;;;17.13;10.52;;;4.10;99.90;;;;;;5040905;28;20404;-92
2023/12/06 08:15:34;;;;;;;18.50;10.70;;;4.10;99.90;;;;;;5043294;28;20028;-92
2023/12/06 08:18:00;;;;;;;18.63;10.05;;;4.10;99.90;;;;;;5049652;28;20037;-91
2023/12/06 08:20:26;;;;;;;17.75;12.57;;;4.10;99.90;;;;;;5039194;28;20051;-92
2023/12/06 08:22:51;;;;;;;16.77;10.38;;;4.10;99.90;;;;;;5039882;28;20022;-91
2023/12/06 08:25:17;;;;;;;15.23;9.75;;;4.10;99.90;;;;;;5029775;28;20034;-93
2023/12/06 08:27:46;;;;;;;19.17;12.10;;;4.00;99.90;;;;;;5023539;28;20041;-94
2023/12/06 08:30:14;;;;;;;15.73;10.57;;;4.00;99.90;;;;;;5040980;28;20489;-92
2023/12/06 08:32:40;;;;;;;19.23;11.60;;;4.00;99.90;;;;;;5039354;28;20022;-90
2023/12/06 08:35:06;;;;;;;15.98;10.02;;;4.00;99.90;;;;;;5042871;28;20033;-92
2023/12/06 08:37:32;;;;;;;18.10;10.20;;;4.10;99.90;;;;;;5047653;28;20044;-92
2023/12/06 08:39:57;;;;;;;17.90;11.15;;;4.10;99.90;;;;;;5041181;28;20026;-93
2023/12/06 08:42:26;;;;;;;16.92;10.35;;;4.10;99.90;;;;;;5045757;28;20021;-92
2023/12/06 08:44:53;;;;;;;17.50;11.68;;;4.10;99.90;;;;;;5042697;28;20021;-91
2023/12/06 08:47:19;;;;;;;16.85;10.13;;;4.10;99.90;;;;;;5041691;28;20045;-92
2023/12/06 08:49:44;;;;;;;20.70;11.50;;;4.10;99.90;;;;;;5047207;28;20045;-92
2023/12/06 08:52:10;;;;;;;18.08;11.02;;;4.20;99.90;;;;;;5053621;28;20021;-92
2023/12/06 08:54:38;;;;;;;19.95;11.05;;;4.10;99.90;;;;;;5050031;28;20037;-95
2023/12/06 08:57:04;;;;;;;18.70;10.70;;;4.20;99.90;;;;;;5041028;28;20032;-93
2023/12/06 08:59:30;;;;;;;18.35;9.82;;;4.20;99.90;;;;;;5059655;28;20395;-92
2023/12/06 09:01:56;;;;;;;19.08;10.77;;;4.20;99.90;;;;;;5051013;28;20025;-93
2023/12/06 09:04:22;;;;;;;17.92;11.07;;;4.20;99.90;;;;;;5039874;28;20033;-91
2023/12/06 09:06:47;;;;;;;17.95;10.27;;;4.20;99.90;;;;;;5041451;28;20048;-92
2023/12/06 09:09:17;;;;;;;21.65;12.52;;;4.20;99.90;;;;;;5054261;28;20022;-91
2023/12/06 09:11:46;;;;;;;16.88;10.75;;;4.30;99.90;;;;;;5047344;28;20025;-93
2023/12/06 09:14:12;;;;;;;16.98;11.02;;;4.20;99.90;;;;;;5042161;28;20105;-91
2023/12/06 09:16:39;;;;;;;18.15;11.15;;;4.30;99.90;;;;;;5052393;28;20028;-91
2023/12/06 09:19:05;;;;;;;20.50;12.02;;;4.30;99.90;;;;;;5056761;28;20029;-91
2023/12/06 09:21:40;;;;;;;19.17;11.32;;;4.30;99.90;;;;;;5050745;28;20028;-92
2023/12/06 09:24:08;;;;;;;15.50;9.73;;;4.40;99.90;;;;;;5045127;28;20029;-90
2023/12/06 09:26:34;;;;;;;17.98;10.10;;;4.30;99.90;;;;;;5044147;28;20021;-93
2023/12/06 09:29:02;;;;;;;16.60;11.27;;;4.30;99.90;;;;;;5045234;28;20090;-94
2023/12/06 09:31:27;;;;;;;16.77;10.38;;;4.30;99.90;;;;;;5046778;28;20500;-95
2023/12/06 09:33:53;;;;;;;14.05;9.63;;;4.30;99.90;;;;;;5045313;28;20040;-93
2023/12/06 09:36:19;;;;;;;16.33;11.30;;;4.40;99.90;;;;;;5056686;28;20036;-92
2023/12/06 09:38:44;;;;;;;14.75;8.88;;;4.40;99.90;;;;;;5050729;28;20037;-91
2023/12/06 09:41:15;;;;;;;16.40;10.02;;;4.40;99.90;;;;;;5054668;28;20324;-92
2023/12/06 09:43:40;;;;;;;15.18;9.63;;;4.40;99.90;;;;;;5057049;28;20361;-92
2023/12/06 09:46:06;;;;;;;20.30;11.90;;;4.40;99.90;;;;;;5056685;28;20044;-92
2023/12/06 09:48:32;;;;;;;17.02;10.18;;;4.40;99.90;;;;;;5038823;28;20059;-92
2023/12/06 09:50:58;;;;;;;17.42;10.85;;;4.40;99.90;;;;;;5053755;28;20025;-93
2023/12/06 09:53:27;;;;;;;19.45;11.73;;;4.30;99.90;;;;;;5058655;28;20395;-91
2023/12/06 09:55:54;;;;;;;18.88;11.80;;;4.40;99.90;;;;;;5042450;28;20026;-92
2023/12/06 09:58:20;;;;;;;15.88;9.80;;;4.60;99.90;;;;;;5041623;28;20481;-91
2023/12/06 10:00:45;;;;;;;15.05;10.27;;;4.60;99.90;;;;;;5045184;28;20044;-93
2023/12/06 10:03:15;;;;;;;18.00;10.45;;;4.50;99.90;;;;;;5052390;28;20117;-92
2023/12/06 10:05:41;;;;;;;15.23;10.50;;;4.40;99.90;;;;;;5044345;28;20021;-90
2023/12/06 10:08:07;;;;;;;18.73;10.88;;;4.40;99.90;;;;;;5043355;28;20025;-91
2023/12/06 10:10:33;;;;;;;17.95;11.18;;;4.40;99.90;;;;;;5043109;28;20067;-92
2023/12/06 10:12:58;;;;;;;19.65;10.10;;;4.50;99.90;;;;;;5044715;28;20059;-90
2023/12/06 10:15:25;;;;;;;15.32;10.02;;;4.40;99.90;;;;;;5052627;28;20025;-91
2023/12/06 10:17:51;;;;;;;16.75;11.20;;;4.50;99.90;;;;;;5051814;28;20506;-94
2023/12/06 10:20:19;;;;;;;17.70;11.75;;;4.50;99.90;;;;;;5055661;28;20013;-92
2023/12/06 10:22:47;;;;;;;17.77;9.32;;;4.50;99.90;;;;;;5050121;28;20403;-92
2023/12/06 10:25:13;;;;;;;18.77;11.25;;;4.50;99.90;;;;;;5048610;28;20021;-91
2023/12/06 10:27:38;;;;;;;15.70;10.07;;;4.50;99.90;;;;;;5049693;28;20084;-93
2023/12/06 10:30:08;;;;;;;16.17;11.35;;;4.60;99.90;;;;;;5043990;28;20029;-92
2023/12/06 10:32:38;;;;;;;15.25;9.68;;;4.60;99.90;;;;;;5044335;28;20025;-92
2023/12/06 10:35:05;;;;;;;14.25;8.85;;;4.60;99.90;;;;;;5043788;28;20029;-91
2023/12/06 10:37:34;;;;;;;15.85;9.57;;;4.60;99.90;;;;;;5053189;28;20052;-92
2023/12/06 10:40:10;;;;;;;17.77;11.57;;;4.50;99.90;;;;;;5047300;28;20077;-92
2023/12/06 10:42:37;;;;;;;16.52;11.00;;;4.50;99.90;;;;;;5033888;28;20553;-91
2023/12/06 10:45:05;;;;;;;15.73;8.98;;;4.60;99.90;;;;;;5041229;28;20045;-93
2023/12/06 10:47:31;;;;;;;15.50;9.10;;;4.60;99.90;;;;;;5042403;28;20223;-93
2023/12/06 10:49:58;;;;;;;19.88;10.55;;;4.70;99.90;;;;;;5042593;28;20025;-92
2023/12/06 10:52:24;;;;;;;16.23;11.30;;;4.60;99.90;;;;;;5058676;28;20029;-92
2023/12/06 10:54:51;;;;;;;16.55;10.75;;;4.60;99.90;;;;;;5042004;28;20078;-91
2023/12/06 10:57:19;;;;;;;15.32;10.48;;;4.70;99.90;;;;;;5046579;28;20383;-92
2023/12/06 10:59:45;;;;;;;17.42;11.30;;;4.60;99.90;;;;;;5062163;28;20108;-92
2023/12/06 11:02:12;;;;;;;17.65;11.15;;;4.60;99.90;;;;;;5041711;28;20431;-92
2023/12/06 11:04:42;;;;;;;17.85;12.23;;;4.60;99.90;;;;;;5055610;28;20021;-91
2023/12/06 11:07:32;;;;;;;19.10;10.85;;;4.60;99.90;;;;;;5043014;28;20064;-93
2023/12/06 11:10:27;;;;;;;16.33;10.77;;;4.70;99.90;;;;;;5041483;28;20238;-92
2023/12/06 11:13:02;;;;;;;19.48;11.48;;;4.70;99.90;;;;;;5040987;28;20657;-92
2023/12/06 11:15:58;;;;;;;19.02;12.73;;;4.70;99.90;;;;;;5042055;28;20036;-93
2023/12/06 11:18:28;;;;;;;18.15;12.27;;;4.70;99.90;;;;;;5040948;28;20105;-93
2023/12/06 11:20:57;;;;;;;21.50;11.07;;;4.70;99.90;;;;;;5049572;28;20021;-91
2023/12/06 11:23:22;;;;;;;17.15;10.57;;;4.80;99.90;;;;;;5053626;28;20025;-91
2023/12/06 11:25:49;;;;;;;17.42;12.00;;;4.80;99.90;;;;;;5043076;28;20551;-91
2023/12/06 11:28:17;;;;;;;15.82;10.27;;;4.80;99.90;;;;;;5048313;28;20022;-91
2023/12/06 11:30:48;;;;;;;15.82;10.90;;;4.80;99.90;;;;;;5039707;28;20085;-92
2023/12/06 11:33:14;;;;;;;16.50;11.10;;;4.80;99.90;;;;;;5039074;28;20097;-91
2023/12/06 11:35:51;;;;;;;17.42;10.18;;;4.80;99.90;;;;;;5046185;28;20022;-91
2023/12/06 11:38:17;;;;;;;17.05;11.35;;;4.80;99.90;;;;;;5043270;28;20029;-92
2023/12/06 11:40:56;;;;;;;14.35;9.30;;;4.90;99.90;;;;;;5055989;28;20071;-92
2023/12/06 11:43:35;;;;;;;14.43;10.07;;;4.90;99.90;;;;;;5059583;28;20028;-92
2023/12/06 11:46:06;;;;;;;16.67;10.63;;;4.90;99.90;;;;;;5042948;28;20022;-91
2023/12/06 11:48:44;;;;;;;16.25;9.38;;;4.90;99.90;;;;;;5041602;28;20052;-93
2023/12/06 11:51:25;;;;;;;16.38;11.75;;;4.90;99.90;;;;;;5050899;28;20063;-91
2023/12/06 11:53:51;;;;;;;13.35;8.25;;;4.90;99.90;;;;;;5044945;28;20076;-89
2023/12/06 11:56:24;;;;;;;14.00;8.68;;;4.90;99.90;;;;;;5038774;28;20036;-92
2023/12/06 11:58:52;;;;;;;16.60;10.82;;;5.00;99.90;;;;;;5043523;28;20085;-91
2023/12/06 12:01:20;;;;;;;15.30;9.60;;;4.90;99.90;;;;;;5030886;28;20045;-91
2023/12/06 12:03:49;;;;;;;16.27;10.38;;;5.00;99.90;;;;;;5027500;28;20030;-90
2023/12/06 12:06:18;;;;;;;15.98;10.35;;;5.00;99.90;;;;;;5049141;28;20649;-91
2023/12/06 12:08:44;;;;;;;15.15;10.25;;;5.00;99.90;;;;;;5049616;28;20025;-92
2023/12/06 12:11:11;;;;;;;19.10;10.90;;;5.00;99.90;;;;;;5047828;28;20074;-92
2023/12/06 12:13:37;;;;;;;15.70;10.18;;;5.00;99.90;;;;;;5037584;28;20029;-89
2023/12/06 12:16:04;;;;;;;12.63;9.40;;;5.10;99.90;;;;;;5054923;28;20029;-90
2023/12/06 12:18:30;;;;;;;14.98;9.50;;;5.10;99.90;;;;;;5046298;28;20038;-90
2023/12/06 12:20:58;;;;;;;13.73;8.90;;;5.10;99.90;;;;;;5051478;28;20475;-90
2023/12/06 12:23:30;;;;;;;16.73;9.73;;;5.10;99.90;;;;;;5054402;28;20022;-90
2023/12/06 12:25:59;;;;;;;12.25;7.88;;;5.10;99.90;;;;;;5047583;28;20074;-90
2023/12/06 12:28:25;;;;;;;15.85;10.43;;;5.10;99.90;;;;;;5057069;28;20020;-93
2023/12/06 12:31:05;;;;;;;13.35;9.90;;;5.10;99.90;;;;;;5044221;28;20022;-89
2023/12/06 12:33:32;;;;;;;19.40;11.38;;;4.90;99.90;;;;;;5037559;28;20032;-90
2023/12/06 12:35:59;;;;;;;13.80;8.98;;;5.00;99.90;;;;;;5036302;28;20033;-90
2023/12/06 12:38:26;;;;;;;18.58;10.40;;;5.00;99.90;;;;;;5044236;28;20027;-91
2023/12/06 12:40:52;;;;;;;14.38;9.82;;;5.00;99.90;;;;;;5050715;28;20025;-90
2023/12/06 12:43:18;;;;;;;16.80;10.95;;;5.10;99.90;;;;;;5044919;28;20028;-91
2023/12/06 12:45:46;;;;;;;14.98;9.52;;;5.00;99.90;;;;;;5038743;28;20025;-92
2023/12/06 12:48:14;;;;;;;17.00;10.13;;;5.00;99.90;;;;;;5040882;28;20037;-90